Morgantown, Pennsylvania
Current Conditions -  °F | °C
As of 11:15 AM on Tuesday 21 Oct 2014 (Local Time) from KMQS Reporting Station
Clear Clear  
Wind Chill: 61°   Ceiling: Unl
Heat Index: 61°   Visibility: 10mi
Dew Point: 50°   Wind: 6mph
Humidity: 68%   Direction: 310°NW
Pressure: 29.87"   Gusts: NA
Location:  40.16°N, 75.89°W
Report Text: KMQS 211515Z AUTO 31005KT 10SM CLR 16/10 A2987 RMK AO2
Loading
Personal Weather Stations






























Interactive Weather Map
Tropical Storm Tracking
New forecast layout! Learn more

10-Day Weather Forecast

Advertisements
Track Severe Weather on mobile